sensor_id;sensor_type;location;lat;lon;timestamp;pressure;altitude;pressure_sealevel;temperature
71205;BMP180;58935;54.498;18.544;2023-05-07T00:02:06;101511.40;;;7.00
71205;BMP180;58935;54.498;18.544;2023-05-07T00:04:32;101512.40;;;7.00
71205;BMP180;58935;54.498;18.544;2023-05-07T00:07:02;101510.00;;;7.00
71205;BMP180;58935;54.498;18.544;2023-05-07T00:09:28;101514.00;;;7.00
71205;BMP180;58935;54.498;18.544;2023-05-07T00:11:54;101517.00;;;7.00
71205;BMP180;58935;54.498;18.544;2023-05-07T00:14:19;101508.00;;;7.00
71205;BMP180;58935;54.498;18.544;2023-05-07T00:16:45;101514.40;;;7.00
71205;BMP180;58935;54.498;18.544;2023-05-07T00:19:11;101512.20;;;7.00
71205;BMP180;58935;54.498;18.544;2023-05-07T00:21:36;101515.20;;;7.00
71205;BMP180;58935;54.498;18.544;2023-05-07T00:24:02;101519.40;;;7.00
71205;BMP180;58935;54.498;18.544;2023-05-07T00:26:28;101514.00;;;7.00
71205;BMP180;58935;54.498;18.544;2023-05-07T00:28:53;101514.40;;;7.00
71205;BMP180;58935;54.498;18.544;2023-05-07T00:31:19;101517.00;;;6.96
71205;BMP180;58935;54.498;18.544;2023-05-07T00:33:44;101522.40;;;6.92
71205;BMP180;58935;54.498;18.544;2023-05-07T00:36:10;101518.80;;;6.90
71205;BMP180;58935;54.498;18.544;2023-05-07T00:38:35;101522.60;;;6.90
71205;BMP180;58935;54.498;18.544;2023-05-07T00:41:01;101526.80;;;6.90
71205;BMP180;58935;54.498;18.544;2023-05-07T00:43:28;101522.20;;;6.90
71205;BMP180;58935;54.498;18.544;2023-05-07T00:45:54;101518.60;;;6.86
71205;BMP180;58935;54.498;18.544;2023-05-07T00:48:20;101529.40;;;6.82
71205;BMP180;58935;54.498;18.544;2023-05-07T00:50:46;101531.20;;;6.80
71205;BMP180;58935;54.498;18.544;2023-05-07T00:53:13;101531.80;;;6.80
71205;BMP180;58935;54.498;18.544;2023-05-07T00:55:39;101523.00;;;6.70
71205;BMP180;58935;54.498;18.544;2023-05-07T00:58:06;101533.20;;;6.70
71205;BMP180;58935;54.498;18.544;2023-05-07T01:00:31;101540.20;;;6.70
71205;BMP180;58935;54.498;18.544;2023-05-07T01:02:58;101535.80;;;6.66
71205;BMP180;58935;54.498;18.544;2023-05-07T01:05:25;101530.00;;;6.60
71205;BMP180;58935;54.498;18.544;2023-05-07T01:07:53;101538.80;;;6.60
71205;BMP180;58935;54.498;18.544;2023-05-07T01:10:20;101541.80;;;6.60
71205;BMP180;58935;54.498;18.544;2023-05-07T01:12:49;101541.60;;;6.60
71205;BMP180;58935;54.498;18.544;2023-05-07T01:15:16;101543.20;;;6.60
71205;BMP180;58935;54.498;18.544;2023-05-07T01:17:43;101546.80;;;6.50
71205;BMP180;58935;54.498;18.544;2023-05-07T01:20:10;101544.60;;;6.50
71205;BMP180;58935;54.498;18.544;2023-05-07T01:22:38;101551.80;;;6.50
71205;BMP180;58935;54.498;18.544;2023-05-07T01:25:06;101547.60;;;6.50
71205;BMP180;58935;54.498;18.544;2023-05-07T01:27:32;101554.20;;;6.50
71205;BMP180;58935;54.498;18.544;2023-05-07T01:29:59;101562.40;;;6.50
71205;BMP180;58935;54.498;18.544;2023-05-07T01:32:50;101559.40;;;6.50
71205;BMP180;58935;54.498;18.544;2023-05-07T01:35:21;101561.80;;;6.50
71205;BMP180;58935;54.498;18.544;2023-05-07T01:37:48;101565.80;;;6.50
71205;BMP180;58935;54.498;18.544;2023-05-07T01:40:15;101565.40;;;6.44
71205;BMP180;58935;54.498;18.544;2023-05-07T01:42:43;101568.40;;;6.40
71205;BMP180;58935;54.498;18.544;2023-05-07T01:45:09;101574.80;;;6.40
71205;BMP180;58935;54.498;18.544;2023-05-07T01:47:37;101570.00;;;6.34
71205;BMP180;58935;54.498;18.544;2023-05-07T01:50:06;101578.60;;;6.30
71205;BMP180;58935;54.498;18.544;2023-05-07T01:52:34;101571.00;;;6.30
71205;BMP180;58935;54.498;18.544;2023-05-07T01:55:00;101572.80;;;6.20
71205;BMP180;58935;54.498;18.544;2023-05-07T01:57:25;101577.40;;;6.20
71205;BMP180;58935;54.498;18.544;2023-05-07T01:59:51;101573.00;;;6.10
71205;BMP180;58935;54.498;18.544;2023-05-07T02:02:16;101573.20;;;6.10
71205;BMP180;58935;54.498;18.544;2023-05-07T02:04:42;101572.60;;;6.10
71205;BMP180;58935;54.498;18.544;2023-05-07T02:07:07;101570.00;;;6.10
71205;BMP180;58935;54.498;18.544;2023-05-07T02:09:33;101572.40;;;6.10
71205;BMP180;58935;54.498;18.544;2023-05-07T02:11:58;101576.80;;;6.10
71205;BMP180;58935;54.498;18.544;2023-05-07T02:14:23;101578.00;;;6.08
71205;BMP180;58935;54.498;18.544;2023-05-07T02:16:49;101571.60;;;6.00
71205;BMP180;58935;54.498;18.544;2023-05-07T02:20:11;101579.80;;;6.00
71205;BMP180;58935;54.498;18.544;2023-05-07T02:22:38;101580.20;;;5.90
71205;BMP180;58935;54.498;18.544;2023-05-07T02:25:04;101587.40;;;5.90
71205;BMP180;58935;54.498;18.544;2023-05-07T02:27:30;101593.00;;;5.90
71205;BMP180;58935;54.498;18.544;2023-05-07T02:29:55;101594.00;;;5.90
71205;BMP180;58935;54.498;18.544;2023-05-07T02:32:20;101590.00;;;5.90
71205;BMP180;58935;54.498;18.544;2023-05-07T02:34:50;101593.60;;;5.80
71205;BMP180;58935;54.498;18.544;2023-05-07T02:37:16;101591.60;;;5.80
71205;BMP180;58935;54.498;18.544;2023-05-07T02:39:41;101588.80;;;5.70
71205;BMP180;58935;54.498;18.544;2023-05-07T02:42:07;101584.60;;;5.70
71205;BMP180;58935;54.498;18.544;2023-05-07T02:44:32;101590.20;;;5.70
71205;BMP180;58935;54.498;18.544;2023-05-07T02:46:58;101589.40;;;5.70
71205;BMP180;58935;54.498;18.544;2023-05-07T02:49:23;101592.00;;;5.70
71205;BMP180;58935;54.498;18.544;2023-05-07T02:51:48;101597.60;;;5.70
71205;BMP180;58935;54.498;18.544;2023-05-07T02:54:14;101593.40;;;5.70
71205;BMP180;58935;54.498;18.544;2023-05-07T02:56:39;101592.80;;;5.68
71205;BMP180;58935;54.498;18.544;2023-05-07T02:59:05;101590.00;;;5.62
71205;BMP180;58935;54.498;18.544;2023-05-07T03:01:30;101595.60;;;5.60
71205;BMP180;58935;54.498;18.544;2023-05-07T03:03:56;101591.80;;;5.60
71205;BMP180;58935;54.498;18.544;2023-05-07T03:06:21;101592.80;;;5.60
71205;BMP180;58935;54.498;18.544;2023-05-07T03:08:47;101591.40;;;5.60
71205;BMP180;58935;54.498;18.544;2023-05-07T03:11:12;101593.00;;;5.60
71205;BMP180;58935;54.498;18.544;2023-05-07T03:13:38;101597.60;;;5.60
71205;BMP180;58935;54.498;18.544;2023-05-07T03:16:04;101596.40;;;5.60
71205;BMP180;58935;54.498;18.544;2023-05-07T03:18:31;101593.60;;;5.60
71205;BMP180;58935;54.498;18.544;2023-05-07T03:20:57;101599.60;;;5.60
71205;BMP180;58935;54.498;18.544;2023-05-07T03:23:22;101601.20;;;5.64
71205;BMP180;58935;54.498;18.544;2023-05-07T03:25:48;101598.60;;;5.70
71205;BMP180;58935;54.498;18.544;2023-05-07T03:28:13;101600.20;;;5.70
71205;BMP180;58935;54.498;18.544;2023-05-07T03:30:39;101598.60;;;5.70
71205;BMP180;58935;54.498;18.544;2023-05-07T03:33:05;101603.60;;;5.70
71205;BMP180;58935;54.498;18.544;2023-05-07T03:35:30;101608.80;;;5.70
71205;BMP180;58935;54.498;18.544;2023-05-07T03:37:55;101610.00;;;5.80
71205;BMP180;58935;54.498;18.544;2023-05-07T03:40:21;101610.20;;;5.80
71205;BMP180;58935;54.498;18.544;2023-05-07T03:42:46;101621.60;;;5.80
71205;BMP180;58935;54.498;18.544;2023-05-07T03:45:12;101619.80;;;5.80
71205;BMP180;58935;54.498;18.544;2023-05-07T03:47:37;101622.00;;;5.80
71205;BMP180;58935;54.498;18.544;2023-05-07T03:50:03;101619.20;;;5.80
71205;BMP180;58935;54.498;18.544;2023-05-07T03:52:29;101623.40;;;5.80
71205;BMP180;58935;54.498;18.544;2023-05-07T03:54:54;101625.00;;;5.80
71205;BMP180;58935;54.498;18.544;2023-05-07T03:57:20;101625.00;;;5.80
71205;BMP180;58935;54.498;18.544;2023-05-07T03:59:46;101628.80;;;5.80
71205;BMP180;58935;54.498;18.544;2023-05-07T04:02:11;101630.60;;;5.90
71205;BMP180;58935;54.498;18.544;2023-05-07T04:04:37;101633.80;;;5.90
71205;BMP180;58935;54.498;18.544;2023-05-07T04:07:02;101637.00;;;6.00
71205;BMP180;58935;54.498;18.544;2023-05-07T04:09:28;101637.80;;;6.10
71205;BMP180;58935;54.498;18.544;2023-05-07T04:11:53;101638.00;;;6.10
71205;BMP180;58935;54.498;18.544;2023-05-07T04:14:19;101635.00;;;6.20
71205;BMP180;58935;54.498;18.544;2023-05-07T04:16:44;101632.60;;;6.20
71205;BMP180;58935;54.498;18.544;2023-05-07T04:19:10;101638.60;;;6.30
71205;BMP180;58935;54.498;18.544;2023-05-07T04:21:35;101643.20;;;6.40
71205;BMP180;58935;54.498;18.544;2023-05-07T04:24:03;101641.20;;;6.40
71205;BMP180;58935;54.498;18.544;2023-05-07T04:26:29;101648.60;;;6.50
71205;BMP180;58935;54.498;18.544;2023-05-07T04:28:54;101647.80;;;6.50
71205;BMP180;58935;54.498;18.544;2023-05-07T04:31:20;101656.20;;;6.64
71205;BMP180;58935;54.498;18.544;2023-05-07T04:33:46;101656.00;;;6.70
71205;BMP180;58935;54.498;18.544;2023-05-07T04:36:11;101657.40;;;6.80
71205;BMP180;58935;54.498;18.544;2023-05-07T04:38:37;101658.40;;;6.90
71205;BMP180;58935;54.498;18.544;2023-05-07T04:41:05;101659.40;;;7.00
71205;BMP180;58935;54.498;18.544;2023-05-07T04:43:32;101662.40;;;7.10
71205;BMP180;58935;54.498;18.544;2023-05-07T04:45:58;101664.40;;;7.20
71205;BMP180;58935;54.498;18.544;2023-05-07T04:48:23;101669.60;;;7.30
71205;BMP180;58935;54.498;18.544;2023-05-07T04:50:50;101671.00;;;7.30
71205;BMP180;58935;54.498;18.544;2023-05-07T04:53:17;101674.20;;;7.40
71205;BMP180;58935;54.498;18.544;2023-05-07T04:55:43;101675.00;;;7.50
71205;BMP180;58935;54.498;18.544;2023-05-07T04:58:10;101682.00;;;7.60
71205;BMP180;58935;54.498;18.544;2023-05-07T05:00:36;101677.80;;;7.70
71205;BMP180;58935;54.498;18.544;2023-05-07T05:03:01;101676.00;;;7.80
71205;BMP180;58935;54.498;18.544;2023-05-07T05:05:27;101672.00;;;7.90
71205;BMP180;58935;54.498;18.544;2023-05-07T05:07:52;101678.80;;;7.90
71205;BMP180;58935;54.498;18.544;2023-05-07T05:10:18;101676.60;;;8.00
71205;BMP180;58935;54.498;18.544;2023-05-07T05:12:44;101677.20;;;8.10
71205;BMP180;58935;54.498;18.544;2023-05-07T05:15:12;101678.60;;;8.20
71205;BMP180;58935;54.498;18.544;2023-05-07T05:17:38;101673.20;;;8.20
71205;BMP180;58935;54.498;18.544;2023-05-07T05:20:05;101676.60;;;8.20
71205;BMP180;58935;54.498;18.544;2023-05-07T05:22:32;101679.00;;;8.30
71205;BMP180;58935;54.498;18.544;2023-05-07T05:24:57;101685.60;;;8.40
71205;BMP180;58935;54.498;18.544;2023-05-07T05:27:23;101691.80;;;8.40
71205;BMP180;58935;54.498;18.544;2023-05-07T05:29:48;101690.60;;;8.48
71205;BMP180;58935;54.498;18.544;2023-05-07T05:32:14;101693.20;;;8.50
71205;BMP180;58935;54.498;18.544;2023-05-07T05:34:40;101698.40;;;8.60
71205;BMP180;58935;54.498;18.544;2023-05-07T05:37:05;101697.40;;;8.60
71205;BMP180;58935;54.498;18.544;2023-05-07T05:39:31;101704.80;;;8.68
71205;BMP180;58935;54.498;18.544;2023-05-07T05:41:56;101697.80;;;8.60
71205;BMP180;58935;54.498;18.544;2023-05-07T05:44:22;101704.00;;;8.60
71205;BMP180;58935;54.498;18.544;2023-05-07T05:46:48;101700.80;;;8.56
71205;BMP180;58935;54.498;18.544;2023-05-07T05:49:15;101703.40;;;8.58
71205;BMP180;58935;54.498;18.544;2023-05-07T05:51:41;101703.40;;;8.60
71205;BMP180;58935;54.498;18.544;2023-05-07T05:54:06;101709.00;;;8.66
71205;BMP180;58935;54.498;18.544;2023-05-07T05:56:32;101711.60;;;8.70
71205;BMP180;58935;54.498;18.544;2023-05-07T05:58:58;101718.40;;;8.80
71205;BMP180;58935;54.498;18.544;2023-05-07T06:01:23;101715.60;;;8.80
71205;BMP180;58935;54.498;18.544;2023-05-07T06:03:49;101719.60;;;8.80
71205;BMP180;58935;54.498;18.544;2023-05-07T06:06:14;101716.80;;;8.86
71205;BMP180;58935;54.498;18.544;2023-05-07T06:08:41;101718.60;;;8.80
71205;BMP180;58935;54.498;18.544;2023-05-07T06:11:07;101715.20;;;8.80
71205;BMP180;58935;54.498;18.544;2023-05-07T06:13:33;101720.60;;;8.70
71205;BMP180;58935;54.498;18.544;2023-05-07T06:15:58;101721.40;;;8.68
71205;BMP180;58935;54.498;18.544;2023-05-07T06:18:23;101720.80;;;8.60
71205;BMP180;58935;54.498;18.544;2023-05-07T06:20:49;101720.60;;;8.50
71205;BMP180;58935;54.498;18.544;2023-05-07T06:23:14;101726.60;;;8.50
71205;BMP180;58935;54.498;18.544;2023-05-07T06:25:40;101731.40;;;8.60
71205;BMP180;58935;54.498;18.544;2023-05-07T06:28:05;101729.60;;;8.60
71205;BMP180;58935;54.498;18.544;2023-05-07T06:30:31;101732.40;;;8.50
71205;BMP180;58935;54.498;18.544;2023-05-07T06:32:56;101729.00;;;8.58
71205;BMP180;58935;54.498;18.544;2023-05-07T06:35:22;101733.20;;;8.60
71205;BMP180;58935;54.498;18.544;2023-05-07T06:37:47;101735.00;;;8.70
71205;BMP180;58935;54.498;18.544;2023-05-07T06:40:13;101737.40;;;8.70
71205;BMP180;58935;54.498;18.544;2023-05-07T06:42:38;101737.40;;;8.60
71205;BMP180;58935;54.498;18.544;2023-05-07T06:45:04;101734.80;;;8.68
71205;BMP180;58935;54.498;18.544;2023-05-07T06:47:30;101739.20;;;8.70
71205;BMP180;58935;54.498;18.544;2023-05-07T06:49:55;101739.60;;;8.60
71205;BMP180;58935;54.498;18.544;2023-05-07T06:52:21;101743.40;;;8.62
71205;BMP180;58935;54.498;18.544;2023-05-07T06:54:46;101749.60;;;8.60
71205;BMP180;58935;54.498;18.544;2023-05-07T06:57:12;101748.00;;;8.60
71205;BMP180;58935;54.498;18.544;2023-05-07T06:59:37;101748.80;;;8.60
71205;BMP180;58935;54.498;18.544;2023-05-07T07:02:03;101753.60;;;8.58
71205;BMP180;58935;54.498;18.544;2023-05-07T07:04:28;101749.40;;;8.60
71205;BMP180;58935;54.498;18.544;2023-05-07T07:06:54;101752.20;;;8.70
71205;BMP180;58935;54.498;18.544;2023-05-07T07:09:20;101753.60;;;8.70
71205;BMP180;58935;54.498;18.544;2023-05-07T07:11:45;101761.20;;;8.70
71205;BMP180;58935;54.498;18.544;2023-05-07T07:14:11;101760.20;;;8.80
71205;BMP180;58935;54.498;18.544;2023-05-07T07:16:37;101762.60;;;8.90
71205;BMP180;58935;54.498;18.544;2023-05-07T07:19:02;101763.20;;;8.86
71205;BMP180;58935;54.498;18.544;2023-05-07T07:21:27;101764.20;;;8.80
71205;BMP180;58935;54.498;18.544;2023-05-07T07:23:53;101765.20;;;8.80
71205;BMP180;58935;54.498;18.544;2023-05-07T07:26:19;101761.20;;;8.70
71205;BMP180;58935;54.498;18.544;2023-05-07T07:28:45;101764.80;;;8.70
71205;BMP180;58935;54.498;18.544;2023-05-07T07:31:12;101768.40;;;8.78
71205;BMP180;58935;54.498;18.544;2023-05-07T07:33:38;101768.60;;;8.80
71205;BMP180;58935;54.498;18.544;2023-05-07T07:36:06;101772.40;;;8.78
71205;BMP180;58935;54.498;18.544;2023-05-07T07:38:32;101772.60;;;8.80
71205;BMP180;58935;54.498;18.544;2023-05-07T07:40:58;101769.80;;;8.80
71205;BMP180;58935;54.498;18.544;2023-05-07T07:43:23;101773.20;;;8.82
71205;BMP180;58935;54.498;18.544;2023-05-07T07:45:49;101772.60;;;8.88
71205;BMP180;58935;54.498;18.544;2023-05-07T07:48:14;101773.20;;;8.88
71205;BMP180;58935;54.498;18.544;2023-05-07T07:50:40;101778.20;;;8.90
71205;BMP180;58935;54.498;18.544;2023-05-07T07:53:05;101779.00;;;8.90
71205;BMP180;58935;54.498;18.544;2023-05-07T07:55:31;101779.60;;;8.90
71205;BMP180;58935;54.498;18.544;2023-05-07T07:57:57;101782.20;;;8.90
71205;BMP180;58935;54.498;18.544;2023-05-07T08:00:23;101782.60;;;8.90
71205;BMP180;58935;54.498;18.544;2023-05-07T08:02:48;101785.20;;;8.90
71205;BMP180;58935;54.498;18.544;2023-05-07T08:05:14;101782.40;;;9.00
71205;BMP180;58935;54.498;18.544;2023-05-07T08:07:41;101777.80;;;9.00
71205;BMP180;58935;54.498;18.544;2023-05-07T08:10:06;101782.20;;;9.10
71205;BMP180;58935;54.498;18.544;2023-05-07T08:12:32;101783.60;;;9.10
71205;BMP180;58935;54.498;18.544;2023-05-07T08:14:58;101783.60;;;9.12
71205;BMP180;58935;54.498;18.544;2023-05-07T08:17:24;101784.20;;;9.10
71205;BMP180;58935;54.498;18.544;2023-05-07T08:19:49;101786.80;;;9.20
71205;BMP180;58935;54.498;18.544;2023-05-07T08:22:15;101790.20;;;9.20
71205;BMP180;58935;54.498;18.544;2023-05-07T08:24:41;101792.60;;;9.20
71205;BMP180;58935;54.498;18.544;2023-05-07T08:29:32;101790.00;;;9.20
71205;BMP180;58935;54.498;18.544;2023-05-07T08:31:57;101797.20;;;9.20
71205;BMP180;58935;54.498;18.544;2023-05-07T08:34:23;101795.80;;;9.20
71205;BMP180;58935;54.498;18.544;2023-05-07T08:36:48;101795.20;;;9.20
71205;BMP180;58935;54.498;18.544;2023-05-07T08:39:15;101794.00;;;9.12
71205;BMP180;58935;54.498;18.544;2023-05-07T08:41:45;101796.00;;;9.10
71205;BMP180;58935;54.498;18.544;2023-05-07T08:44:13;101791.00;;;9.18
71205;BMP180;58935;54.498;18.544;2023-05-07T08:46:41;101797.60;;;9.12
71205;BMP180;58935;54.498;18.544;2023-05-07T08:49:08;101800.40;;;9.10
71205;BMP180;58935;54.498;18.544;2023-05-07T08:51:34;101801.80;;;9.10
71205;BMP180;58935;54.498;18.544;2023-05-07T08:54:01;101804.20;;;9.00
71205;BMP180;58935;54.498;18.544;2023-05-07T08:56:27;101807.00;;;9.00
71205;BMP180;58935;54.498;18.544;2023-05-07T08:58:52;101806.80;;;9.00
71205;BMP180;58935;54.498;18.544;2023-05-07T09:01:22;101812.40;;;9.00
71205;BMP180;58935;54.498;18.544;2023-05-07T09:03:49;101810.80;;;9.00
71205;BMP180;58935;54.498;18.544;2023-05-07T09:06:15;101809.00;;;9.00
71205;BMP180;58935;54.498;18.544;2023-05-07T09:08:51;101813.80;;;9.00
71205;BMP180;58935;54.498;18.544;2023-05-07T09:11:21;101814.80;;;8.90
71205;BMP180;58935;54.498;18.544;2023-05-07T09:13:47;101813.00;;;9.00
71205;BMP180;58935;54.498;18.544;2023-05-07T09:16:14;101805.60;;;9.00
71205;BMP180;58935;54.498;18.544;2023-05-07T09:18:42;101814.00;;;9.10
71205;BMP180;58935;54.498;18.544;2023-05-07T09:21:14;101808.00;;;9.10
71205;BMP180;58935;54.498;18.544;2023-05-07T09:23:40;101808.60;;;9.10
71205;BMP180;58935;54.498;18.544;2023-05-07T09:26:06;101815.20;;;9.10
71205;BMP180;58935;54.498;18.544;2023-05-07T09:28:41;101815.40;;;9.10
71205;BMP180;58935;54.498;18.544;2023-05-07T09:31:10;101813.00;;;9.10
71205;BMP180;58935;54.498;18.544;2023-05-07T09:33:38;101813.60;;;9.12
71205;BMP180;58935;54.498;18.544;2023-05-07T09:36:08;101818.00;;;9.20
71205;BMP180;58935;54.498;18.544;2023-05-07T09:38:37;101815.40;;;9.30
71205;BMP180;58935;54.498;18.544;2023-05-07T09:41:08;101818.60;;;9.32
71205;BMP180;58935;54.498;18.544;2023-05-07T09:43:36;101817.40;;;9.40
71205;BMP180;58935;54.498;18.544;2023-05-07T09:46:07;101815.20;;;9.30
71205;BMP180;58935;54.498;18.544;2023-05-07T09:48:38;101816.60;;;9.38
71205;BMP180;58935;54.498;18.544;2023-05-07T09:53:43;101817.20;;;9.60
71205;BMP180;58935;54.498;18.544;2023-05-07T09:56:09;101813.00;;;9.70
71205;BMP180;58935;54.498;18.544;2023-05-07T09:58:37;101814.40;;;9.70
71205;BMP180;58935;54.498;18.544;2023-05-07T10:01:04;101809.00;;;9.72
71205;BMP180;58935;54.498;18.544;2023-05-07T10:03:32;101815.60;;;9.80
71205;BMP180;58935;54.498;18.544;2023-05-07T10:05:59;101810.60;;;9.80
71205;BMP180;58935;54.498;18.544;2023-05-07T10:08:30;101811.20;;;9.90
71205;BMP180;58935;54.498;18.544;2023-05-07T10:10:56;101813.60;;;10.00
71205;BMP180;58935;54.498;18.544;2023-05-07T10:13:22;101812.40;;;10.00
71205;BMP180;58935;54.498;18.544;2023-05-07T10:15:51;101814.00;;;10.10
71205;BMP180;58935;54.498;18.544;2023-05-07T10:18:18;101816.80;;;10.10
71205;BMP180;58935;54.498;18.544;2023-05-07T10:20:49;101814.80;;;10.10
71205;BMP180;58935;54.498;18.544;2023-05-07T10:23:23;101819.20;;;10.16
71205;BMP180;58935;54.498;18.544;2023-05-07T10:25:49;101817.00;;;10.20
71205;BMP180;58935;54.498;18.544;2023-05-07T10:28:17;101816.60;;;10.30
71205;BMP180;58935;54.498;18.544;2023-05-07T10:31:01;101824.60;;;10.30
71205;BMP180;58935;54.498;18.544;2023-05-07T10:33:32;101825.00;;;10.30
71205;BMP180;58935;54.498;18.544;2023-05-07T10:36:00;101818.60;;;10.30
71205;BMP180;58935;54.498;18.544;2023-05-07T10:38:29;101816.20;;;10.40
71205;BMP180;58935;54.498;18.544;2023-05-07T10:40:55;101817.60;;;10.50
71205;BMP180;58935;54.498;18.544;2023-05-07T10:43:20;101813.80;;;10.50
71205;BMP180;58935;54.498;18.544;2023-05-07T10:48:21;101818.60;;;10.60
71205;BMP180;58935;54.498;18.544;2023-05-07T10:50:49;101820.40;;;10.70
71205;BMP180;58935;54.498;18.544;2023-05-07T10:53:37;101817.00;;;10.80
71205;BMP180;58935;54.498;18.544;2023-05-07T10:56:24;101818.80;;;10.80
71205;BMP180;58935;54.498;18.544;2023-05-07T10:58:51;101818.60;;;10.80
71205;BMP180;58935;54.498;18.544;2023-05-07T11:04:13;101815.80;;;11.00
71205;BMP180;58935;54.498;18.544;2023-05-07T11:06:40;101817.00;;;11.00
71205;BMP180;58935;54.498;18.544;2023-05-07T11:09:06;101820.20;;;11.00
71205;BMP180;58935;54.498;18.544;2023-05-07T11:14:05;101822.40;;;11.00
71205;BMP180;58935;54.498;18.544;2023-05-07T11:16:32;101826.00;;;10.98
71205;BMP180;58935;54.498;18.544;2023-05-07T11:19:01;101829.40;;;10.90
71205;BMP180;58935;54.498;18.544;2023-05-07T11:21:33;101827.80;;;10.90
71205;BMP180;58935;54.498;18.544;2023-05-07T11:24:00;101831.80;;;11.00
71205;BMP180;58935;54.498;18.544;2023-05-07T11:26:28;101826.80;;;11.00
71205;BMP180;58935;54.498;18.544;2023-05-07T11:28:54;101825.40;;;11.00
71205;BMP180;58935;54.498;18.544;2023-05-07T11:31:26;101825.00;;;11.00
71205;BMP180;58935;54.498;18.544;2023-05-07T11:33:54;101828.80;;;11.00
71205;BMP180;58935;54.498;18.544;2023-05-07T11:36:23;101828.20;;;11.00
71205;BMP180;58935;54.498;18.544;2023-05-07T11:38:48;101832.00;;;11.10
71205;BMP180;58935;54.498;18.544;2023-05-07T11:41:16;101829.20;;;11.10
71205;BMP180;58935;54.498;18.544;2023-05-07T11:46:17;101838.20;;;11.20
71205;BMP180;58935;54.498;18.544;2023-05-07T11:48:45;101833.80;;;11.20
71205;BMP180;58935;54.498;18.544;2023-05-07T11:51:10;101838.80;;;11.20
71205;BMP180;58935;54.498;18.544;2023-05-07T11:53:42;101839.40;;;11.20
71205;BMP180;58935;54.498;18.544;2023-05-07T11:56:10;101834.20;;;11.20
71205;BMP180;58935;54.498;18.544;2023-05-07T11:58:37;101838.20;;;11.28
71205;BMP180;58935;54.498;18.544;2023-05-07T12:01:04;101835.80;;;11.40
71205;BMP180;58935;54.498;18.544;2023-05-07T12:03:30;101831.00;;;11.48
71205;BMP180;58935;54.498;18.544;2023-05-07T12:05:55;101835.20;;;11.50
71205;BMP180;58935;54.498;18.544;2023-05-07T12:08:22;101833.40;;;11.50
71205;BMP180;58935;54.498;18.544;2023-05-07T12:10:50;101833.60;;;11.54
71205;BMP180;58935;54.498;18.544;2023-05-07T12:13:21;101834.20;;;11.70
71205;BMP180;58935;54.498;18.544;2023-05-07T12:15:52;101838.00;;;11.60
71205;BMP180;58935;54.498;18.544;2023-05-07T12:18:18;101838.20;;;11.60
71205;BMP180;58935;54.498;18.544;2023-05-07T12:20:45;101840.40;;;11.70
71205;BMP180;58935;54.498;18.544;2023-05-07T12:23:12;101838.40;;;11.80
71205;BMP180;58935;54.498;18.544;2023-05-07T12:25:39;101836.20;;;11.96
71205;BMP180;58935;54.498;18.544;2023-05-07T12:28:13;101843.80;;;12.00
71205;BMP180;58935;54.498;18.544;2023-05-07T12:30:43;101841.40;;;12.00
71205;BMP180;58935;54.498;18.544;2023-05-07T12:33:09;101838.00;;;12.06
71205;BMP180;58935;54.498;18.544;2023-05-07T12:35:40;101842.00;;;12.10
71205;BMP180;58935;54.498;18.544;2023-05-07T12:38:10;101839.20;;;12.00
71205;BMP180;58935;54.498;18.544;2023-05-07T12:40:41;101842.60;;;12.00
71205;BMP180;58935;54.498;18.544;2023-05-07T12:43:14;101847.20;;;11.90
71205;BMP180;58935;54.498;18.544;2023-05-07T12:45:42;101846.40;;;11.80
71205;BMP180;58935;54.498;18.544;2023-05-07T12:48:10;101842.40;;;11.80
71205;BMP180;58935;54.498;18.544;2023-05-07T12:50:36;101839.20;;;11.90
71205;BMP180;58935;54.498;18.544;2023-05-07T12:53:04;101844.60;;;12.00
71205;BMP180;58935;54.498;18.544;2023-05-07T12:55:32;101844.00;;;12.20
71205;BMP180;58935;54.498;18.544;2023-05-07T12:58:01;101843.00;;;12.30
71205;BMP180;58935;54.498;18.544;2023-05-07T13:00:37;101850.20;;;12.30
71205;BMP180;58935;54.498;18.544;2023-05-07T13:03:03;101848.80;;;12.30
71205;BMP180;58935;54.498;18.544;2023-05-07T13:05:29;101853.60;;;12.30
71205;BMP180;58935;54.498;18.544;2023-05-07T13:08:00;101849.20;;;12.30
71205;BMP180;58935;54.498;18.544;2023-05-07T13:10:27;101852.20;;;12.40
71205;BMP180;58935;54.498;18.544;2023-05-07T13:12:55;101850.80;;;12.40
71205;BMP180;58935;54.498;18.544;2023-05-07T13:15:21;101844.40;;;12.58
71205;BMP180;58935;54.498;18.544;2023-05-07T13:17:47;101846.40;;;12.70
71205;BMP180;58935;54.498;18.544;2023-05-07T13:20:15;101849.40;;;12.90
71205;BMP180;58935;54.498;18.544;2023-05-07T13:22:41;101851.80;;;13.10
71205;BMP180;58935;54.498;18.544;2023-05-07T13:25:07;101849.60;;;13.18
71205;BMP180;58935;54.498;18.544;2023-05-07T13:27:33;101845.20;;;13.20
71205;BMP180;58935;54.498;18.544;2023-05-07T13:30:04;101849.00;;;13.30
71205;BMP180;58935;54.498;18.544;2023-05-07T13:32:30;101847.40;;;13.30
71205;BMP180;58935;54.498;18.544;2023-05-07T13:34:59;101846.60;;;13.30
71205;BMP180;58935;54.498;18.544;2023-05-07T13:37:24;101845.60;;;13.30
71205;BMP180;58935;54.498;18.544;2023-05-07T13:39:50;101846.20;;;13.38
71205;BMP180;58935;54.498;18.544;2023-05-07T13:42:16;101850.80;;;13.40
71205;BMP180;58935;54.498;18.544;2023-05-07T13:44:42;101839.80;;;13.30
71205;BMP180;58935;54.498;18.544;2023-05-07T13:47:10;101837.40;;;13.30
71205;BMP180;58935;54.498;18.544;2023-05-07T13:49:36;101837.00;;;13.30
71205;BMP180;58935;54.498;18.544;2023-05-07T13:52:03;101842.40;;;13.20
71205;BMP180;58935;54.498;18.544;2023-05-07T13:54:28;101839.20;;;13.20
71205;BMP180;58935;54.498;18.544;2023-05-07T13:56:53;101840.40;;;13.10
71205;BMP180;58935;54.498;18.544;2023-05-07T13:59:19;101837.80;;;13.00
71205;BMP180;58935;54.498;18.544;2023-05-07T14:01:44;101828.00;;;12.90
71205;BMP180;58935;54.498;18.544;2023-05-07T14:04:10;101834.20;;;12.80
71205;BMP180;58935;54.498;18.544;2023-05-07T14:06:36;101836.40;;;12.80
71205;BMP180;58935;54.498;18.544;2023-05-07T14:09:02;101834.40;;;12.70